Time;durP1;ratioP1;P1;durP2;ratioP2;P2;SDS_P1;SDS_P2;PMS_P1;PMS_P2;Temp;Humidity;BMP_temperature;BMP_pressure;BME280_temperature;BME280_humidity;BME280_pressure;Samples;Min_cycle;Max_cycle;Signal;HPM_P1;HPM_P2
2021/05/04 00:02:12;;;;;;;2.97;2.73;;;;;;;10.17;53.19;95445.97;4918002;29;20254;-82
2021/05/04 00:04:38;;;;;;;2.70;2.40;;;;;;;10.20;53.03;95439.72;4919582;29;20202;-82
2021/05/04 00:07:05;;;;;;;2.93;2.60;;;;;;;10.23;53.00;95439.31;4919639;29;20207;-83
2021/05/04 00:09:30;;;;;;;2.50;2.30;;;;;;;10.22;52.93;95435.97;4918719;29;20198;-82
2021/05/04 00:11:57;;;;;;;2.70;2.50;;;;;;;10.18;53.48;95436.47;4919103;29;20261;-82
2021/05/04 00:14:23;;;;;;;2.90;2.60;;;;;;;10.13;53.49;95426.72;4919317;29;20230;-82
2021/05/04 00:16:49;;;;;;;3.37;2.57;;;;;;;10.11;53.25;95428.66;4918362;29;20206;-81
2021/05/04 00:19:16;;;;;;;2.50;2.30;;;;;;;10.15;53.09;95423.97;4918946;29;20210;-80
2021/05/04 00:21:41;;;;;;;2.83;2.60;;;;;;;10.09;53.25;95422.91;4918338;29;20214;-81
2021/05/04 00:24:08;;;;;;;2.50;2.30;;;;;;;10.05;53.66;95411.34;4918612;29;20313;-81
2021/05/04 00:26:34;;;;;;;3.20;2.40;;;;;;;10.07;53.81;95414.56;4918246;29;20206;-83
2021/05/04 00:29:00;;;;;;;2.47;2.27;;;;;;;9.93;53.98;95416.16;4919161;29;20210;-83
2021/05/04 00:31:26;;;;;;;2.77;2.57;;;;;;;9.88;54.37;95408.16;4918746;29;20577;-82
2021/05/04 00:33:53;;;;;;;2.43;2.23;;;;;;;9.90;54.15;95408.00;4919332;29;20597;-82
2021/05/04 00:36:20;;;;;;;2.33;2.13;;;;;;;9.86;54.63;95404.16;4919821;29;20237;-80
2021/05/04 00:38:46;;;;;;;2.10;2.00;;;;;;;9.82;54.72;95408.06;4919083;29;20202;-83
2021/05/04 00:41:11;;;;;;;2.30;2.10;;;;;;;9.79;54.75;95400.72;4918910;29;20225;-82
2021/05/04 00:43:37;;;;;;;3.60;3.17;;;;;;;9.73;54.87;95401.41;4918200;29;20222;-80
2021/05/04 00:46:03;;;;;;;2.43;2.20;;;;;;;9.76;54.85;95396.72;4918533;29;20202;-79
2021/05/04 00:48:30;;;;;;;3.20;2.27;;;;;;;9.77;54.82;95400.88;4918727;29;20237;-78
2021/05/04 00:50:57;;;;;;;2.40;2.20;;;;;;;9.84;54.84;95400.97;4918175;29;20234;-82
2021/05/04 00:53:24;;;;;;;2.30;2.10;;;;;;;9.81;54.82;95389.28;4918584;29;20230;-82
2021/05/04 00:55:51;;;;;;;2.50;2.30;;;;;;;9.81;54.77;95389.28;4919822;29;20206;-82
2021/05/04 00:58:17;;;;;;;2.33;2.13;;;;;;;9.75;55.17;95387.41;4920727;29;20206;-82
2021/05/04 01:00:43;;;;;;;2.17;2.03;;;;;;;9.69;55.41;95380.38;4920617;29;20221;-82
2021/05/04 01:03:11;;;;;;;2.10;2.00;;;;;;;9.59;55.09;95377.28;4921220;29;20230;-83
2021/05/04 01:05:37;;;;;;;3.63;2.20;;;;;;;9.50;56.06;95381.69;4920387;29;20198;-82
2021/05/04 01:08:03;;;;;;;2.67;2.30;;;;;;;9.51;56.01;95369.66;4918939;29;20198;-84
2021/05/04 01:10:30;;;;;;;2.40;2.20;;;;;;;9.48;55.61;95375.94;4918639;29;20530;-82
2021/05/04 01:12:56;;;;;;;2.93;2.27;;;;;;;9.42;56.00;95363.00;4917940;29;20226;-83
2021/05/04 01:15:22;;;;;;;2.17;1.97;;;;;;;9.36;56.50;95364.47;4918157;29;20206;-83
2021/05/04 01:17:48;;;;;;;3.40;2.10;;;;;;;9.35;56.10;95362.88;4918506;29;20202;-81
2021/05/04 01:20:15;;;;;;;2.07;1.90;;;;;;;9.43;56.22;95360.22;4918502;29;20206;-81
2021/05/04 01:22:42;;;;;;;2.10;2.00;;;;;;;9.51;56.07;95354.22;4917320;29;20226;-81
2021/05/04 01:25:09;;;;;;;2.20;2.10;;;;;;;9.54;55.61;95349.53;4918279;29;20210;-82
2021/05/04 01:27:35;;;;;;;2.60;2.40;;;;;;;9.57;55.74;95349.19;4917098;29;20214;-82
2021/05/04 01:30:01;;;;;;;2.27;2.07;;;;;;;9.47;56.05;95353.78;4917993;29;20225;-82
2021/05/04 01:32:27;;;;;;;2.57;2.37;;;;;;;9.44;55.93;95356.69;4917772;29;20242;-82
2021/05/04 01:34:53;;;;;;;2.10;2.00;;;;;;;9.40;56.45;95349.53;4918128;29;20257;-80
2021/05/04 01:37:19;;;;;;;2.10;1.93;;;;;;;9.41;56.27;95340.84;4917768;29;20202;-81
2021/05/04 01:39:48;;;;;;;2.40;2.20;;;;;;;9.35;56.24;95353.41;4918142;29;20217;-81
2021/05/04 01:42:15;;;;;;;2.87;2.37;;;;;;;9.26;56.70;95349.31;4917038;29;20234;-83
2021/05/04 01:44:41;;;;;;;2.30;2.10;;;;;;;9.26;56.60;95351.88;4917759;29;20213;-81
2021/05/04 01:47:08;;;;;;;2.27;2.17;;;;;;;9.31;56.21;95341.06;4917180;29;20197;-82
2021/05/04 01:49:34;;;;;;;2.47;2.17;;;;;;;9.40;56.65;95345.19;4918021;29;20203;-81
2021/05/04 01:52:01;;;;;;;2.20;2.00;;;;;;;9.37;56.32;95335.25;4917492;29;20607;-82
2021/05/04 01:54:28;;;;;;;2.40;2.20;;;;;;;9.33;56.51;95346.84;4916798;29;20709;-80
2021/05/04 01:56:57;;;;;;;2.20;2.10;;;;;;;9.30;56.48;95342.06;4917454;29;20198;-82
2021/05/04 01:59:24;;;;;;;2.30;2.10;;;;;;;9.31;56.38;95335.94;4917545;29;20726;-82
2021/05/04 02:01:50;;;;;;;2.00;1.90;;;;;;;9.20;56.95;95344.06;4917029;29;20222;-83
2021/05/04 02:04:16;;;;;;;2.77;1.80;;;;;;;9.18;56.61;95333.19;4916883;29;20710;-82
2021/05/04 02:06:42;;;;;;;1.90;1.80;;;;;;;9.20;56.81;95329.47;4917323;29;20195;-82
2021/05/04 02:09:10;;;;;;;2.27;1.93;;;;;;;9.23;56.99;95330.91;4916881;29;20202;-82
2021/05/04 02:11:36;;;;;;;2.17;1.97;;;;;;;9.26;56.74;95331.31;4916222;29;20238;-83
2021/05/04 02:14:03;;;;;;;2.27;2.00;;;;;;;9.21;57.02;95325.13;4917137;29;20230;-82
2021/05/04 02:16:29;;;;;;;2.23;2.10;;;;;;;9.18;56.77;95322.91;4917156;29;20577;-82
2021/05/04 02:18:56;;;;;;;1.80;1.70;;;;;;;9.23;56.93;95323.19;4917624;29;20198;-82
2021/05/04 02:21:22;;;;;;;2.70;2.27;;;;;;;9.14;56.86;95309.59;4917182;29;20301;-82
2021/05/04 02:23:49;;;;;;;2.30;2.10;;;;;;;9.18;56.76;95316.00;4916259;29;20222;-83
2021/05/04 02:26:16;;;;;;;2.50;2.30;;;;;;;9.22;56.54;95313.88;4916664;29;20202;-83
2021/05/04 02:28:43;;;;;;;3.43;1.90;;;;;;;9.21;56.55;95309.72;4916530;29;20574;-83
2021/05/04 02:31:10;;;;;;;2.97;1.90;;;;;;;9.16;56.85;95307.66;4916953;29;20195;-83
2021/05/04 02:33:36;;;;;;;1.80;1.70;;;;;;;9.06;57.06;95301.97;4916517;29;20324;-82
2021/05/04 02:36:03;;;;;;;1.90;1.80;;;;;;;9.08;57.00;95299.22;4916221;29;20194;-83
2021/05/04 02:38:30;;;;;;;3.53;2.13;;;;;;;9.11;57.22;95293.75;4916342;29;20198;-83
2021/05/04 02:40:56;;;;;;;1.90;1.80;;;;;;;9.10;56.97;95292.94;4916478;29;20222;-82
2021/05/04 02:43:23;;;;;;;2.33;2.03;;;;;;;8.98;57.25;95287.44;4916381;29;20226;-83
2021/05/04 02:45:49;;;;;;;1.97;1.87;;;;;;;9.06;57.29;95289.13;4916850;29;20806;-82
2021/05/04 02:48:15;;;;;;;1.90;1.80;;;;;;;9.05;57.42;95286.72;4916961;29;20206;-83
2021/05/04 02:50:41;;;;;;;2.13;2.00;;;;;;;8.90;57.69;95277.22;4915865;29;20685;-82
2021/05/04 02:53:07;;;;;;;1.83;1.73;;;;;;;8.92;57.67;95279.63;4916132;29;20268;-82
2021/05/04 02:55:33;;;;;;;1.80;1.70;;;;;;;8.99;57.77;95272.84;4916368;29;20226;-82
2021/05/04 02:57:59;;;;;;;2.10;2.00;;;;;;;9.00;57.16;95277.78;4916506;29;20671;-82
2021/05/04 03:00:25;;;;;;;1.87;1.77;;;;;;;8.96;57.08;95268.03;4916619;29;20202;-82
2021/05/04 03:02:51;;;;;;;2.30;1.90;;;;;;;8.99;57.33;95271.06;4916415;29;20230;-82
2021/05/04 03:05:18;;;;;;;1.97;1.87;;;;;;;8.99;57.11;95270.25;4916436;29;20289;-82
2021/05/04 03:07:45;;;;;;;1.87;1.77;;;;;;;8.98;57.64;95261.75;4916434;29;20201;-82
2021/05/04 03:10:11;;;;;;;2.03;1.93;;;;;;;8.90;57.49;95264.38;4915586;29;20321;-82
2021/05/04 03:12:37;;;;;;;2.27;2.07;;;;;;;8.74;57.76;95261.97;4915575;29;20230;-83
2021/05/04 03:15:04;;;;;;;2.03;1.90;;;;;;;8.68;58.36;95256.72;4915436;29;20733;-82
2021/05/04 03:17:30;;;;;;;2.03;1.93;;;;;;;8.68;58.31;95257.50;4915672;29;20206;-82
2021/05/04 03:19:56;;;;;;;2.30;2.10;;;;;;;8.79;57.72;95264.03;4915110;29;20245;-82
2021/05/04 03:22:23;;;;;;;2.10;1.90;;;;;;;8.76;57.85;95246.38;4914947;29;20237;-82
2021/05/04 03:24:49;;;;;;;3.30;2.20;;;;;;;8.69;58.16;95248.03;4915910;29;20202;-82
2021/05/04 03:27:15;;;;;;;1.90;1.80;;;;;;;8.73;57.78;95252.66;4915623;29;20621;-82
2021/05/04 03:29:42;;;;;;;2.10;2.00;;;;;;;8.79;57.61;95243.47;4915322;29;20673;-81
2021/05/04 03:32:08;;;;;;;2.20;2.10;;;;;;;8.83;57.90;95240.41;4914993;29;20202;-81
2021/05/04 03:34:34;;;;;;;2.03;1.90;;;;;;;8.73;58.08;95250.09;4914907;29;20644;-82
2021/05/04 03:37:00;;;;;;;1.87;1.70;;;;;;;8.68;58.36;95244.69;4919649;29;20209;-83
2021/05/04 03:39:26;;;;;;;2.30;2.10;;;;;;;8.71;57.89;95244.34;4918576;29;20746;-81
2021/05/04 03:41:52;;;;;;;2.30;1.80;;;;;;;8.68;57.94;95242.09;4918955;29;20229;-82
2021/05/04 03:44:18;;;;;;;2.33;1.93;;;;;;;8.76;58.01;95249.75;4919195;29;20222;-83
2021/05/04 03:46:45;;;;;;;2.93;1.90;;;;;;;8.72;58.10;95245.13;4919908;29;20214;-82
2021/05/04 03:49:12;;;;;;;1.93;1.83;;;;;;;8.74;58.09;95236.28;4919461;29;20208;-81
2021/05/04 03:51:38;;;;;;;2.30;2.10;;;;;;;8.74;58.03;95235.50;4919457;29;20256;-82
2021/05/04 03:54:05;;;;;;;2.20;2.10;;;;;;;8.79;57.82;95235.78;4919286;29;20229;-79
2021/05/04 03:56:32;;;;;;;3.40;2.40;;;;;;;8.86;57.88;95231.53;4919967;29;20210;-80
2021/05/04 03:58:58;;;;;;;2.30;2.10;;;;;;;8.82;57.33;95236.25;4919756;29;20217;-79
2021/05/04 04:01:24;;;;;;;2.00;1.90;;;;;;;8.84;57.46;95224.03;4919764;29;20221;-80
2021/05/04 04:03:51;;;;;;;3.43;2.20;;;;;;;8.86;57.41;95234.91;4919480;29;20957;-79
2021/05/04 04:06:17;;;;;;;2.27;2.07;;;;;;;8.90;57.07;95225.09;4920173;29;20585;-80
2021/05/04 04:08:45;;;;;;;3.20;2.20;;;;;;;8.87;57.44;95225.41;4919987;29;20202;-78
2021/05/04 04:11:11;;;;;;;5.53;2.10;;;;;;;8.85;57.35;95219.69;4919023;29;20313;-81
2021/05/04 04:13:38;;;;;;;2.30;2.00;;;;;;;8.85;57.28;95220.47;4919634;29;20588;-80
2021/05/04 04:16:04;;;;;;;2.90;2.20;;;;;;;8.82;57.21;95213.13;4919678;29;20219;-83
2021/05/04 04:18:30;;;;;;;3.03;2.00;;;;;;;8.87;57.36;95215.16;4918919;29;20205;-80
2021/05/04 04:20:56;;;;;;;2.37;2.17;;;;;;;8.91;57.41;95211.28;4919760;29;20242;-79
2021/05/04 04:23:23;;;;;;;2.50;2.30;;;;;;;9.03;57.11;95216.78;4918947;29;20225;-80
2021/05/04 04:25:50;;;;;;;2.30;2.10;;;;;;;9.06;56.61;95219.78;4919018;29;20206;-82
2021/05/04 04:28:16;;;;;;;2.40;2.20;;;;;;;9.17;56.54;95223.72;4914766;29;20213;-79
2021/05/04 04:30:42;;;;;;;28.80;21.87;;;;;;;9.25;56.39;95210.75;4919339;29;20202;-81
2021/05/04 04:33:08;;;;;;;5.43;4.00;;;;;;;9.34;55.66;95209.72;4911967;29;20234;-83
2021/05/04 04:35:34;;;;;;;3.30;2.50;;;;;;;9.44;55.49;95219.69;4919331;29;20209;-81
2021/05/04 04:38:01;;;;;;;2.23;2.10;;;;;;;9.49;54.92;95217.41;4919554;29;20217;-83
2021/05/04 04:40:27;;;;;;;2.40;2.20;;;;;;;9.48;54.71;95218.38;4918753;29;20210;-83
2021/05/04 04:42:53;;;;;;;2.37;1.80;;;;;;;9.46;54.84;95221.13;4916469;29;20625;-82
2021/05/04 04:45:19;;;;;;;2.30;2.10;;;;;;;9.63;54.27;95216.59;4918904;29;20214;-82
2021/05/04 04:47:45;;;;;;;2.43;2.23;;;;;;;9.71;54.12;95216.50;4918273;29;20229;-81
2021/05/04 04:50:12;;;;;;;2.63;2.30;;;;;;;9.67;53.40;95210.91;4919354;29;20211;-80
2021/05/04 04:52:38;;;;;;;2.00;1.90;;;;;;;9.69;53.78;95208.16;4918942;29;20581;-83
2021/05/04 04:55:05;;;;;;;2.80;2.10;;;;;;;9.65;53.25;95212.06;4918884;29;20205;-82
2021/05/04 04:57:32;;;;;;;2.53;2.10;;;;;;;9.59;53.61;95210.22;4918852;29;20231;-82
2021/05/04 04:59:58;;;;;;;2.47;2.27;;;;;;;9.59;53.32;95205.88;4916766;29;20206;-80
2021/05/04 05:02:24;;;;;;;2.37;2.17;;;;;;;9.61;53.19;95208.28;4909609;29;20233;-79
2021/05/04 05:04:51;;;;;;;3.37;2.23;;;;;;;9.72;52.84;95202.66;4916596;29;20203;-78
2021/05/04 05:07:17;;;;;;;7.17;2.30;;;;;;;9.85;56.91;95205.38;4918283;29;20201;-84
2021/05/04 05:09:45;;;;;;;1.80;1.70;;;;;;;9.91;53.29;95214.94;4918687;29;20206;-84
2021/05/04 05:12:11;;;;;;;2.20;1.87;;;;;;;10.00;52.74;95198.44;4918728;29;20722;-81
2021/05/04 05:14:39;;;;;;;2.53;2.10;;;;;;;10.20;52.60;95203.03;4918800;29;20210;-83
2021/05/04 05:17:05;;;;;;;2.67;2.30;;;;;;;10.19;52.20;95197.06;4919072;29;20274;-79
2021/05/04 05:19:31;;;;;;;4.50;2.00;;;;;;;10.20;51.78;95192.72;4919600;29;20210;-82
2021/05/04 05:22:00;;;;;;;2.27;1.93;;;;;;;10.28;52.42;95202.88;4918734;29;20258;-83
2021/05/04 05:24:26;;;;;;;2.10;1.90;;;;;;;10.40;51.81;95191.09;4917899;29;20238;-82
2021/05/04 05:26:52;;;;;;;4.10;2.33;;;;;;;10.44;51.87;95187.19;4917649;29;20245;-79
2021/05/04 05:29:18;;;;;;;4.20;1.97;;;;;;;10.58;51.42;95188.13;4917701;29;20206;-82
2021/05/04 05:31:44;;;;;;;3.17;2.30;;;;;;;10.57;51.02;95183.94;4916972;29;20213;-80
2021/05/04 05:34:11;;;;;;;2.47;2.07;;;;;;;10.66;50.49;95177.66;4917517;29;20232;-81
2021/05/04 05:36:37;;;;;;;2.40;1.80;;;;;;;10.76;50.43;95172.22;4917855;29;20222;-80
2021/05/04 05:39:04;;;;;;;2.00;1.80;;;;;;;10.86;49.94;95172.66;4917339;29;20209;-81
2021/05/04 05:41:30;;;;;;;2.63;1.90;;;;;;;10.95;49.97;95176.69;4916725;29;20213;-80
2021/05/04 05:43:56;;;;;;;4.87;2.17;;;;;;;11.09;49.71;95168.06;4916120;29;20229;-81
2021/05/04 05:46:22;;;;;;;2.20;2.00;;;;;;;11.10;49.02;95172.22;4917062;29;20839;-83
2021/05/04 05:48:48;;;;;;;2.90;2.27;;;;;;;11.17;48.69;95169.66;4916704;29;20206;-80
2021/05/04 05:51:15;;;;;;;3.23;1.83;;;;;;;11.15;48.47;95162.16;4916268;29;20202;-81
2021/05/04 05:53:41;;;;;;;3.30;2.00;;;;;;;11.30;48.62;95159.44;4916296;29;20218;-80
2021/05/04 05:56:07;;;;;;;2.37;1.80;;;;;;;11.44;48.28;95163.66;4917024;29;20301;-80
2021/05/04 05:58:34;;;;;;;2.20;2.00;;;;;;;11.47;47.43;95159.91;4916512;29;20209;-82
2021/05/04 06:01:00;;;;;;;3.53;1.80;;;;;;;11.60;47.79;95163.34;4916205;29;20210;-78
2021/05/04 06:03:27;;;;;;;2.23;1.93;;;;;;;11.67;47.62;95158.22;4915877;29;20230;-79
2021/05/04 06:05:53;;;;;;;1.73;1.50;;;;;;;11.68;47.01;95157.22;4916445;29;20190;-82
2021/05/04 06:08:19;;;;;;;2.80;2.00;;;;;;;11.71;47.15;95154.25;4916786;29;20202;-82
2021/05/04 06:10:46;;;;;;;2.23;1.83;;;;;;;11.74;46.98;95149.47;4898374;29;20290;-80
2021/05/04 06:13:13;;;;;;;2.10;1.90;;;;;;;11.79;46.92;95161.84;4906043;29;20785;-82
2021/05/04 06:15:40;;;;;;;3.70;1.90;;;;;;;11.88;46.99;95150.38;4918081;29;20198;-84
2021/05/04 06:18:08;;;;;;;2.10;1.83;;;;;;;11.97;47.37;95161.28;4916475;29;20198;-81
2021/05/04 06:23:56;;;;;;;2.03;1.87;;;;;;;12.07;46.98;95165.09;4912641;29;20238;-80
2021/05/04 06:26:22;;;;;;;2.33;1.80;;;;;;;12.18;47.72;95160.34;4909548;29;20210;-82
2021/05/04 06:28:50;;;;;;;2.20;1.90;;;;;;;12.23;47.08;95153.59;4917725;29;20285;-82
2021/05/04 06:31:17;;;;;;;3.07;1.77;;;;;;;12.20;46.68;95153.19;4917223;29;20238;-80
2021/05/04 06:33:43;;;;;;;4.07;2.13;;;;;;;12.32;47.35;95143.84;4916354;29;20254;-81
2021/05/04 06:36:09;;;;;;;2.97;1.87;;;;;;;12.43;47.56;95144.09;4918101;29;20221;-83
2021/05/04 06:38:36;;;;;;;2.07;1.90;;;;;;;12.52;46.26;95134.34;4918047;29;20958;-79
2021/05/04 06:41:03;;;;;;;2.13;2.00;;;;;;;12.48;46.32;95138.34;4917227;29;20202;-81
2021/05/04 06:43:29;;;;;;;2.60;1.73;;;;;;;12.59;46.43;95131.75;4916804;29;20229;-80
2021/05/04 06:45:56;;;;;;;2.13;1.93;;;;;;;12.64;45.76;95127.59;4917382;29;20202;-83
2021/05/04 06:48:22;;;;;;;3.67;2.07;;;;;;;12.77;45.93;95129.34;4917504;29;20241;-83
2021/05/04 06:50:48;;;;;;;2.93;2.23;;;;;;;12.91;45.33;95122.38;4917205;29;20198;-81
2021/05/04 06:53:14;;;;;;;4.20;1.90;;;;;;;12.98;45.05;95120.56;4917176;29;20277;-83
2021/05/04 06:55:40;;;;;;;2.63;2.00;;;;;;;12.97;44.78;95119.78;4916780;29;20194;-83
2021/05/04 06:58:07;;;;;;;2.83;2.07;;;;;;;13.06;45.09;95105.66;4917644;29;20273;-82
2021/05/04 07:00:36;;;;;;;1.80;1.70;;;;;;;13.00;44.43;95116.78;4917077;29;20195;-82
2021/05/04 07:03:03;;;;;;;2.60;2.23;;;;;;;12.96;44.71;95107.84;4916296;29;20230;-81
2021/05/04 07:05:29;;;;;;;1.97;1.87;;;;;;;13.02;44.58;95108.84;4917411;29;20202;-81
2021/05/04 07:07:55;;;;;;;2.40;1.90;;;;;;;13.14;44.79;95104.63;4917197;29;20264;-82
2021/05/04 07:10:21;;;;;;;2.00;1.90;;;;;;;13.20;44.14;95100.47;4916936;29;20244;-81
2021/05/04 07:12:47;;;;;;;1.77;1.60;;;;;;;13.20;44.14;95106.44;4917116;29;20226;-81
2021/05/04 07:15:16;;;;;;;2.90;2.27;;;;;;;13.09;42.81;95096.69;4917334;29;20202;-83
2021/05/04 07:17:42;;;;;;;2.00;1.90;;;;;;;13.30;43.88;95096.44;4916971;29;20202;-80
2021/05/04 07:20:11;;;;;;;2.90;2.03;;;;;;;13.46;43.87;95092.63;4916726;29;20234;-82
2021/05/04 07:22:37;;;;;;;1.93;1.83;;;;;;;13.59;43.30;95094.34;4915876;29;20241;-83
2021/05/04 07:25:04;;;;;;;2.07;1.93;;;;;;;13.71;43.31;95085.69;4917513;29;20202;-84
2021/05/04 07:27:30;;;;;;;4.70;2.30;;;;;;;13.77;43.13;95092.63;4916986;29;20214;-83
2021/05/04 07:30:00;;;;;;;2.80;2.00;;;;;;;13.77;42.70;95095.22;4918619;29;20213;-81
2021/05/04 07:32:31;;;;;;;2.10;1.90;;;;;;;13.80;43.18;95091.44;4918627;29;20225;-81
2021/05/04 07:35:01;;;;;;;1.97;1.87;;;;;;;13.89;42.15;95095.34;4920380;29;20400;-80
2021/05/04 07:37:29;;;;;;;2.40;2.20;;;;;;;14.05;42.11;95086.28;4910838;29;20186;-83
2021/05/04 07:39:58;;;;;;;2.27;2.00;;;;;;;14.16;41.55;95083.81;4917911;29;20212;-80
2021/05/04 07:42:25;;;;;;;1.70;1.60;;;;;;;14.13;41.23;95080.84;4916277;29;20218;-83
2021/05/04 07:44:51;;;;;;;2.67;1.83;;;;;;;14.24;41.26;95093.09;4917762;29;20206;-81
2021/05/04 07:47:17;;;;;;;2.70;2.00;;;;;;;14.24;40.37;95085.34;4918479;29;20201;-82
2021/05/04 07:49:44;;;;;;;3.07;1.90;;;;;;;14.39;40.91;95085.03;4915997;29;20728;-83
2021/05/04 07:52:11;;;;;;;2.40;1.90;;;;;;;14.47;40.68;95082.19;4918023;29;20202;-84
2021/05/04 07:54:38;;;;;;;5.30;1.93;;;;;;;14.64;40.70;95078.06;4916546;29;20226;-82
2021/05/04 07:57:08;;;;;;;1.70;1.60;;;;;;;14.80;40.25;95074.94;4916913;29;20202;-82
2021/05/04 07:59:34;;;;;;;5.57;1.90;;;;;;;14.76;39.28;95078.94;4916550;29;20206;-82
2021/05/04 08:02:02;;;;;;;2.07;1.93;;;;;;;14.91;40.18;95076.00;4911498;29;20225;-81
2021/05/04 08:04:29;;;;;;;2.63;1.97;;;;;;;14.96;40.32;95070.97;4913010;29;20653;-81
2021/05/04 08:06:55;;;;;;;3.80;2.07;;;;;;;14.96;39.08;95073.56;4916105;29;20225;-81
2021/05/04 08:09:22;;;;;;;2.47;2.23;;;;;;;14.92;39.77;95069.03;4917134;29;20213;-84
2021/05/04 08:11:49;;;;;;;2.23;1.97;;;;;;;15.02;39.33;95070.09;4917675;29;20728;-84
2021/05/04 08:14:17;;;;;;;2.97;1.93;;;;;;;15.11;38.43;95070.59;4917965;29;20216;-81
2021/05/04 08:16:43;;;;;;;2.20;2.00;;;;;;;15.29;38.63;95059.44;4917271;29;20198;-82
2021/05/04 08:19:09;;;;;;;3.67;2.00;;;;;;;15.44;38.29;95057.22;4916428;29;20243;-84
2021/05/04 08:21:39;;;;;;;2.07;1.90;;;;;;;15.71;38.99;95063.69;4919398;29;20217;-82
2021/05/04 08:24:10;;;;;;;2.20;2.00;;;;;;;15.69;38.53;95070.91;4920341;29;20222;-84
2021/05/04 08:26:39;;;;;;;2.00;1.80;;;;;;;15.63;38.29;95063.19;4919123;29;20221;-84
2021/05/04 08:29:12;;;;;;;3.17;2.17;;;;;;;15.64;38.62;95057.78;4909383;29;20221;-82
2021/05/04 08:31:39;;;;;;;2.47;1.93;;;;;;;15.75;38.91;95051.88;4920028;29;20217;-83
2021/05/04 08:34:11;;;;;;;3.20;2.50;;;;;;;15.76;38.37;95061.25;4920751;29;20572;-83
2021/05/04 08:36:37;;;;;;;4.40;2.00;;;;;;;15.63;37.68;95058.00;4921229;29;20236;-83
2021/05/04 08:39:07;;;;;;;2.37;1.90;;;;;;;15.78;37.88;95066.97;4901580;29;20227;-81
2021/05/04 08:41:37;;;;;;;2.30;2.10;;;;;;;15.99;37.25;95049.31;4901678;29;20211;-83
2021/05/04 08:44:09;;;;;;;2.50;2.10;;;;;;;16.17;37.80;95049.22;4920748;29;20240;-84
2021/05/04 08:49:27;;;;;;;1.92;1.73;;;;;;;16.37;37.32;95041.91;4915464;29;20226;-83
2021/05/04 08:51:53;;;;;;;2.33;2.00;;;;;;;16.46;36.85;95044.97;4918762;29;20662;-84
2021/05/04 08:54:19;;;;;;;2.43;1.80;;;;;;;16.57;36.91;95046.75;4920250;29;20314;-82
2021/05/04 08:56:48;;;;;;;2.63;1.88;;;;;;;16.53;36.42;95054.25;4918923;29;20451;-82
2021/05/04 08:59:14;;;;;;;2.80;1.80;;;;;;;16.52;36.35;95050.06;4908854;29;20206;-81
2021/05/04 09:01:43;;;;;;;1.67;1.57;;;;;;;16.45;35.48;95043.38;4918750;29;20197;-81
2021/05/04 09:04:34;;;;;;;1.97;1.70;;;;;;;16.27;35.50;95035.69;4900162;29;20246;-82
2021/05/04 09:07:21;;;;;;;2.30;1.80;;;;;;;16.39;35.98;95042.47;4902321;29;20682;-81
2021/05/04 09:10:09;;;;;;;5.13;1.70;;;;;;;16.39;36.04;95037.28;4918919;29;20289;-80
2021/05/04 09:12:39;;;;;;;2.53;1.70;;;;;;;16.53;36.27;95028.25;4907369;29;20822;-83
2021/05/04 09:15:53;;;;;;;3.17;1.80;;;;;;;16.71;36.60;95040.38;4915533;29;20228;-83
2021/05/04 09:18:37;;;;;;;2.25;1.65;;;;;;;16.90;34.35;95038.41;4917549;29;20713;-80
2021/05/04 09:21:05;;;;;;;2.08;1.92;;;;;;;17.14;33.81;95029.53;4918392;29;20255;-83
2021/05/04 09:23:32;;;;;;;2.05;1.85;;;;;;;17.50;32.85;95027.59;4919142;29;20257;-84
2021/05/04 09:25:59;;;;;;;2.70;1.75;;;;;;;17.68;32.12;95004.00;4919617;29;20206;-84
2021/05/04 09:28:25;;;;;;;1.98;1.88;;;;;;;17.98;32.34;95016.72;4918885;29;20214;-83
2021/05/04 09:30:53;;;;;;;2.88;2.10;;;;;;;17.97;30.51;95006.56;4919126;29;20644;-83
2021/05/04 09:33:19;;;;;;;5.93;2.05;;;;;;;17.93;28.67;95001.81;4918189;29;20250;-81
2021/05/04 09:35:46;;;;;;;1.70;1.60;;;;;;;17.83;28.35;95012.06;4920472;29;20213;-81
2021/05/04 09:38:14;;;;;;;4.00;2.00;;;;;;;17.79;28.86;94984.91;4918610;29;20650;-83
2021/05/04 09:40:41;;;;;;;4.72;1.58;;;;;;;17.67;28.43;95004.25;4918568;29;21002;-83
2021/05/04 09:43:10;;;;;;;3.80;1.70;;;;;;;17.46;27.92;94990.84;4917560;29;20684;-82
2021/05/04 09:45:40;;;;;;;2.28;1.90;;;;;;;17.46;29.07;94990.06;4917593;29;20214;-80
2021/05/04 09:48:30;;;;;;;2.60;1.70;;;;;;;17.45;28.19;94999.66;4917407;29;20210;-81
2021/05/04 09:51:03;;;;;;;1.70;1.60;;;;;;;17.37;27.55;95000.03;4920571;29;20299;-82
2021/05/04 09:56:16;;;;;;;6.95;1.83;;;;;;;17.58;28.32;94982.97;4919548;29;20202;-83
2021/05/04 09:58:43;;;;;;;9.10;1.90;;;;;;;17.64;28.93;94999.47;4919924;29;20230;-82
2021/05/04 10:01:11;;;;;;;1.98;1.52;;;;;;;17.48;28.53;94973.19;4919302;29;20208;-81
2021/05/04 10:03:42;;;;;;;3.00;1.85;;;;;;;17.35;28.53;94963.03;4918436;29;20267;-82
2021/05/04 10:06:10;;;;;;;2.38;1.67;;;;;;;17.43;28.69;94980.91;4919018;29;20194;-81
2021/05/04 10:08:39;;;;;;;1.55;1.45;;;;;;;17.55;28.83;94973.00;4917365;29;20305;-82
2021/05/04 10:11:10;;;;;;;2.70;1.80;;;;;;;17.63;29.96;94954.41;4917904;29;20234;-82
2021/05/04 10:13:41;;;;;;;4.57;1.73;;;;;;;17.54;28.63;94987.06;4917988;29;20222;-79
2021/05/04 10:16:10;;;;;;;4.03;1.83;;;;;;;17.27;29.10;94981.66;4919433;29;20194;-82
2021/05/04 10:18:39;;;;;;;4.20;1.70;;;;;;;17.39;29.51;94969.38;4919071;29;20210;-84
2021/05/04 10:21:07;;;;;;;13.68;1.98;;;;;;;17.47;29.64;94974.19;4918058;29;20202;-81
2021/05/04 10:23:41;;;;;;;2.03;1.67;;;;;;;17.49;29.21;94960.97;4918612;29;20229;-83
2021/05/04 10:26:14;;;;;;;1.85;1.60;;;;;;;17.52;29.09;94956.06;4919884;29;20190;-83
2021/05/04 10:28:41;;;;;;;2.15;1.95;;;;;;;17.89;29.91;94953.06;4910093;29;20262;-83
2021/05/04 10:31:09;;;;;;;2.03;1.70;;;;;;;17.92;29.41;94960.38;4905530;29;20195;-82
2021/05/04 10:33:39;;;;;;;2.95;1.90;;;;;;;17.98;29.20;94949.00;4917736;29;20369;-83
2021/05/04 10:36:26;;;;;;;5.30;1.60;;;;;;;18.00;29.81;94944.34;4919097;29;20241;-84
2021/05/04 10:38:56;;;;;;;4.20;1.50;;;;;;;18.10;29.66;94934.06;4917201;29;20899;-82
2021/05/04 10:41:25;;;;;;;4.60;1.80;;;;;;;18.21;29.85;94933.19;4918082;29;20201;-80
2021/05/04 10:43:59;;;;;;;4.63;2.03;;;;;;;18.19;31.06;94922.22;4920009;29;20226;-83
2021/05/04 10:46:40;;;;;;;2.17;1.65;;;;;;;18.20;29.97;94939.44;4912980;29;20207;-83
2021/05/04 10:49:08;;;;;;;3.08;1.85;;;;;;;18.02;29.51;94924.06;4907376;29;20206;-82
2021/05/04 10:51:49;;;;;;;2.25;1.60;;;;;;;18.23;29.86;94914.72;4914850;29;20729;-81
2021/05/04 10:54:20;;;;;;;2.08;1.48;;;;;;;18.26;29.66;94911.63;4919567;29;20801;-82
2021/05/04 10:56:49;;;;;;;1.40;1.30;;;;;;;18.28;30.31;94901.72;4919492;29;20206;-84
2021/05/04 10:59:46;;;;;;;1.75;1.60;;;;;;;18.18;30.50;94894.59;4919716;29;20213;-84
2021/05/04 11:02:26;;;;;;;2.10;1.90;;;;;;;18.25;30.71;94910.06;4917651;29;20214;-84
2021/05/04 11:04:55;;;;;;;1.67;1.55;;;;;;;18.38;31.12;94890.66;4919438;29;20916;-82
2021/05/04 11:07:52;;;;;;;3.58;1.50;;;;;;;18.50;31.01;94891.31;4916723;29;20637;-82
2021/05/04 11:10:19;;;;;;;3.15;1.50;;;;;;;18.84;30.45;94907.69;4895681;29;20310;-84
2021/05/04 11:12:45;;;;;;;2.95;1.80;;;;;;;18.86;30.23;94887.34;4909639;29;20224;-81
2021/05/04 11:15:19;;;;;;;3.75;1.60;;;;;;;18.70;30.35;94886.38;4918735;29;20293;-81
2021/05/04 11:17:45;;;;;;;2.65;1.63;;;;;;;18.59;30.30;94889.91;4917921;29;20214;-82
2021/05/04 11:20:31;;;;;;;1.88;1.50;;;;;;;18.69;31.18;94887.41;4918188;29;20233;-81
2021/05/04 11:22:57;;;;;;;1.50;1.40;;;;;;;18.70;31.57;94881.16;4905212;29;20693;-82
2021/05/04 11:25:32;;;;;;;1.55;1.40;;;;;;;18.72;30.93;94873.09;4917438;29;20905;-80
2021/05/04 11:27:58;;;;;;;1.98;1.60;;;;;;;18.59;30.39;94876.88;4917729;29;20202;-83
2021/05/04 11:30:35;;;;;;;5.72;1.95;;;;;;;18.38;30.78;94883.63;4919670;29;20234;-83
2021/05/04 11:33:24;;;;;;;1.70;1.50;;;;;;;18.40;30.47;94881.59;4916991;29;20230;-83
2021/05/04 11:35:50;;;;;;;1.50;1.40;;;;;;;18.31;30.80;94867.38;4917971;29;20207;-83
2021/05/04 11:38:20;;;;;;;3.10;1.50;;;;;;;18.23;31.45;94884.25;4918611;29;20225;-84
2021/05/04 11:40:50;;;;;;;2.25;1.67;;;;;;;18.22;32.10;94877.44;4918906;29;20202;-81
2021/05/04 11:43:20;;;;;;;1.85;1.67;;;;;;;18.07;31.43;94866.84;4917117;29;20657;-84
2021/05/04 11:45:50;;;;;;;2.45;1.92;;;;;;;17.96;31.90;94872.91;4917948;29;20210;-84
2021/05/04 11:48:31;;;;;;;6.22;1.63;;;;;;;17.93;31.76;94866.38;4918392;29;20201;-82
2021/05/04 11:51:00;;;;;;;2.17;1.50;;;;;;;18.02;32.14;94865.97;4899959;29;20203;-84